Orbital elements of FENGYUN 1C DEB
| Launched | 9 May 1999 |
| Flight ended | – |
| Launch site | Taiyuan Space Center, PRC |
| Owner | People's Republic of China |
| NORAD ID | 37065 |
| Date fetched |
Epoch osculation |
Inc. [°] |
Ecc. | RA asc node [hr] |
Arg Peri. [°] |
Mean anom [°] |
Mean motion [rev/day] |
Abs. mag |
| Date fetched |
Epoch osculation |
Inc. [°] |
Ecc. | RA asc node [hr] |
Arg Peri. [°] |
Mean anom [°] |
Mean motion [rev/day] |
Abs. mag |
| 2026 May 05 17:57 | 2026 May 01 08:11:53 | 103.2824 | 0.02919 | 23.3550 | 300.6658 | 56.5995 | 13.59733 | – |
| 2026 May 04 17:57 | 2026 Apr 29 20:52:55 | 103.2825 | 0.02927 | 23.2223 | 303.7869 | 56.5995 | 13.59733 | – |
| 2026 May 03 17:57 | 2026 Apr 29 20:52:55 | 103.2825 | 0.02927 | 23.2223 | 303.7869 | 56.5995 | 13.59733 | – |
| 2026 May 02 17:57 | 2026 Apr 29 20:52:55 | 103.2825 | 0.02927 | 23.2223 | 303.7869 | 56.5995 | 13.59733 | – |
| 2026 May 01 17:56 | 2026 Apr 29 20:52:55 | 103.2825 | 0.02927 | 23.2223 | 303.7869 | 56.5995 | 13.59733 | – |
| 2026 Apr 30 17:56 | 2026 Apr 29 20:52:55 | 103.2825 | 0.02927 | 23.2223 | 303.7869 | 56.5995 | 13.59733 | – |
| 2026 Apr 29 17:57 | 2026 Apr 19 20:43:44 | 103.2832 | 0.02939 | 22.3201 | 325.2857 | 56.5995 | 13.59733 | – |
| 2026 Apr 28 17:56 | 2026 Apr 19 20:43:44 | 103.2832 | 0.02939 | 22.3201 | 325.2857 | 56.5995 | 13.59733 | – |
| 2026 Apr 27 17:58 | 2026 Apr 19 20:43:44 | 103.2832 | 0.02939 | 22.3201 | 325.2857 | 56.5995 | 13.59733 | – |
| 2026 Apr 26 17:58 | 2026 Apr 19 20:43:44 | 103.2832 | 0.02939 | 22.3201 | 325.2857 | 56.5995 | 13.59733 | – |
| 2026 Apr 25 17:58 | 2026 Apr 19 20:43:44 | 103.2832 | 0.02939 | 22.3201 | 325.2857 | 56.5995 | 13.59733 | – |
| 2026 Apr 24 17:59 | 2026 Apr 19 20:43:44 | 103.2832 | 0.02939 | 22.3201 | 325.2857 | 56.5995 | 13.59733 | – |
| 2026 Apr 23 17:57 | 2026 Apr 14 20:39:04 | 103.2832 | 0.02945 | 21.8690 | 335.9456 | 56.5995 | 13.59733 | – |
| 2026 Apr 22 17:57 | 2026 Apr 14 20:39:04 | 103.2832 | 0.02945 | 21.8690 | 335.9456 | 56.5995 | 13.59733 | – |
| 2026 Apr 21 17:57 | 2026 Apr 14 20:39:04 | 103.2832 | 0.02945 | 21.8690 | 335.9456 | 56.5995 | 13.59733 | – |
| 2026 Apr 20 17:57 | 2026 Apr 14 20:39:04 | 103.2832 | 0.02945 | 21.8690 | 335.9456 | 56.5995 | 13.59733 | – |
| 2026 Apr 19 17:58 | 2026 Apr 14 20:39:04 | 103.2832 | 0.02945 | 21.8690 | 335.9456 | 56.5995 | 13.59733 | – |
| 2026 Apr 18 17:56 | 2026 Apr 11 07:53:24 | 103.2834 | 0.02947 | 21.5505 | 343.5743 | 56.5995 | 13.59733 | – |
| 2026 Apr 16 17:57 | 2026 Apr 11 07:53:24 | 103.2834 | 0.02947 | 21.5505 | 343.5743 | 56.5995 | 13.59733 | – |
| 2026 Apr 14 17:57 | 2026 Apr 11 07:53:24 | 103.2834 | 0.02947 | 21.5505 | 343.5743 | 56.5995 | 13.59733 | – |
| 2026 Apr 13 17:57 | 2026 Apr 11 07:53:24 | 103.2834 | 0.02947 | 21.5505 | 343.5743 | 56.5995 | 13.59733 | – |
| 2026 Apr 12 17:57 | 2026 Apr 03 07:24:32 | 103.2849 | 0.02946 | 20.8275 | 0.5086 | 56.5995 | 13.59733 | – |
| 2026 Apr 11 17:57 | 2026 Apr 03 07:24:32 | 103.2849 | 0.02946 | 20.8275 | 0.5086 | 56.5995 | 13.59733 | – |
| 2026 Apr 10 17:58 | 2026 Apr 03 07:24:32 | 103.2849 | 0.02946 | 20.8275 | 0.5086 | 56.5995 | 13.59733 | – |
| 2026 Apr 09 18:01 | 2026 Apr 03 07:24:32 | 103.2849 | 0.02946 | 20.8275 | 0.5086 | 56.5995 | 13.59733 | – |
| 2026 Apr 08 17:57 | 2026 Apr 03 07:24:32 | 103.2849 | 0.02946 | 20.8275 | 0.5086 | 56.5995 | 13.59733 | – |